sensor_id;sensor_type;location;lat;lon;timestamp;pressure;altitude;pressure_sealevel;temperature;humidity
52957;BME280;38819;42.692;23.342;2023-04-21T00:00:02;94896.94;;;12.41;60.33
52957;BME280;38819;42.692;23.342;2023-04-21T00:02:32;94885.72;;;12.34;60.81
52957;BME280;38819;42.692;23.342;2023-04-21T00:04:57;94887.78;;;12.29;60.81
52957;BME280;38819;42.692;23.342;2023-04-21T00:07:24;94887.91;;;12.23;60.91
52957;BME280;38819;42.692;23.342;2023-04-21T00:09:49;94880.47;;;11.98;61.62
52957;BME280;38819;42.692;23.342;2023-04-21T00:12:15;94886.84;;;12.02;61.72
52957;BME280;38819;42.692;23.342;2023-04-21T00:14:40;94884.44;;;12.00;60.96
52957;BME280;38819;42.692;23.342;2023-04-21T00:17:05;94886.66;;;11.98;61.21
52957;BME280;38819;42.692;23.342;2023-04-21T00:19:31;94884.13;;;12.02;61.34
52957;BME280;38819;42.692;23.342;2023-04-21T00:21:57;94884.88;;;11.94;61.44
52957;BME280;38819;42.692;23.342;2023-04-21T00:24:25;94892.22;;;11.93;61.73
52957;BME280;38819;42.692;23.342;2023-04-21T00:26:50;94889.81;;;11.92;61.82
52957;BME280;38819;42.692;23.342;2023-04-21T00:29:16;94889.03;;;11.77;61.77
52957;BME280;38819;42.692;23.342;2023-04-21T00:31:41;94888.31;;;11.63;62.17
52957;BME280;38819;42.692;23.342;2023-04-21T00:34:07;94891.44;;;11.56;62.50
52957;BME280;38819;42.692;23.342;2023-04-21T00:36:32;94894.69;;;11.44;62.75
52957;BME280;38819;42.692;23.342;2023-04-21T00:38:58;94887.09;;;11.32;62.98
52957;BME280;38819;42.692;23.342;2023-04-21T00:41:23;94891.81;;;11.27;63.15
52957;BME280;38819;42.692;23.342;2023-04-21T00:44:06;94888.03;;;11.28;63.33
52957;BME280;38819;42.692;23.342;2023-04-21T00:46:33;94894.72;;;11.30;63.60
52957;BME280;38819;42.692;23.342;2023-04-21T00:48:59;94892.84;;;11.17;63.87
52957;BME280;38819;42.692;23.342;2023-04-21T00:51:28;94887.97;;;11.05;64.34
52957;BME280;38819;42.692;23.342;2023-04-21T00:53:54;94882.97;;;10.99;64.47
52957;BME280;38819;42.692;23.342;2023-04-21T00:56:21;94876.78;;;10.98;64.59
52957;BME280;38819;42.692;23.342;2023-04-21T00:58:47;94870.59;;;10.98;64.31
52957;BME280;38819;42.692;23.342;2023-04-21T01:01:13;94878.47;;;10.94;64.57
52957;BME280;38819;42.692;23.342;2023-04-21T01:03:39;94870.06;;;10.96;64.40
52957;BME280;38819;42.692;23.342;2023-04-21T01:06:05;94871.00;;;10.91;64.58
52957;BME280;38819;42.692;23.342;2023-04-21T01:08:31;94875.16;;;10.97;64.72
52957;BME280;38819;42.692;23.342;2023-04-21T01:10:57;94869.47;;;10.99;64.63
52957;BME280;38819;42.692;23.342;2023-04-21T01:13:22;94874.56;;;11.00;65.29
52957;BME280;38819;42.692;23.342;2023-04-21T01:15:48;94872.25;;;11.07;64.69
52957;BME280;38819;42.692;23.342;2023-04-21T01:18:13;94872.66;;;11.01;64.93
52957;BME280;38819;42.692;23.342;2023-04-21T01:20:39;94868.56;;;11.03;65.39
52957;BME280;38819;42.692;23.342;2023-04-21T01:23:05;94871.75;;;11.05;65.34
52957;BME280;38819;42.692;23.342;2023-04-21T01:25:31;94871.38;;;10.98;65.91
52957;BME280;38819;42.692;23.342;2023-04-21T01:27:57;94878.16;;;10.96;65.88
52957;BME280;38819;42.692;23.342;2023-04-21T01:30:23;94870.66;;;10.92;66.10
52957;BME280;38819;42.692;23.342;2023-04-21T01:32:48;94875.09;;;10.88;65.86
52957;BME280;38819;42.692;23.342;2023-04-21T01:35:14;94877.81;;;10.74;65.41
52957;BME280;38819;42.692;23.342;2023-04-21T01:37:39;94871.31;;;10.48;65.91
52957;BME280;38819;42.692;23.342;2023-04-21T01:40:06;94875.09;;;10.47;65.87
52957;BME280;38819;42.692;23.342;2023-04-21T01:42:35;94870.09;;;10.54;65.90
52957;BME280;38819;42.692;23.342;2023-04-21T01:45:01;94867.09;;;10.42;65.84
52957;BME280;38819;42.692;23.342;2023-04-21T01:47:27;94874.31;;;10.46;66.55
52957;BME280;38819;42.692;23.342;2023-04-21T01:49:52;94859.31;;;10.40;66.23
52957;BME280;38819;42.692;23.342;2023-04-21T01:52:18;94868.19;;;10.41;66.36
52957;BME280;38819;42.692;23.342;2023-04-21T01:54:44;94858.50;;;10.40;66.19
52957;BME280;38819;42.692;23.342;2023-04-21T01:57:09;94864.41;;;10.42;66.63
52957;BME280;38819;42.692;23.342;2023-04-21T01:59:35;94863.53;;;10.32;66.67
52957;BME280;38819;42.692;23.342;2023-04-21T02:02:00;94863.72;;;10.36;66.27
52957;BME280;38819;42.692;23.342;2023-04-21T02:04:25;94865.59;;;10.35;66.57
52957;BME280;38819;42.692;23.342;2023-04-21T02:06:51;94867.69;;;10.38;66.40
52957;BME280;38819;42.692;23.342;2023-04-21T02:09:16;94866.63;;;10.40;66.69
52957;BME280;38819;42.692;23.342;2023-04-21T02:11:42;94871.81;;;10.36;66.54
52957;BME280;38819;42.692;23.342;2023-04-21T02:14:07;94863.63;;;10.41;66.06
52957;BME280;38819;42.692;23.342;2023-04-21T02:16:33;94868.63;;;10.48;65.71
52957;BME280;38819;42.692;23.342;2023-04-21T02:18:58;94864.00;;;10.48;66.06
52957;BME280;38819;42.692;23.342;2023-04-21T02:21:27;94860.91;;;10.55;65.72
52957;BME280;38819;42.692;23.342;2023-04-21T02:23:53;94860.72;;;10.51;66.44
52957;BME280;38819;42.692;23.342;2023-04-21T02:26:19;94858.59;;;10.48;65.83
52957;BME280;38819;42.692;23.342;2023-04-21T02:28:45;94862.31;;;10.52;66.13
52957;BME280;38819;42.692;23.342;2023-04-21T02:31:11;94864.91;;;10.44;66.39
52957;BME280;38819;42.692;23.342;2023-04-21T02:33:37;94852.22;;;10.44;65.21
52957;BME280;38819;42.692;23.342;2023-04-21T02:36:02;94857.91;;;10.56;65.05
52957;BME280;38819;42.692;23.342;2023-04-21T02:38:28;94851.31;;;10.63;64.86
52957;BME280;38819;42.692;23.342;2023-04-21T02:40:55;94860.41;;;10.67;64.45
52957;BME280;38819;42.692;23.342;2023-04-21T02:43:20;94867.00;;;10.74;63.77
52957;BME280;38819;42.692;23.342;2023-04-21T02:45:46;94856.28;;;10.83;63.69
52957;BME280;38819;42.692;23.342;2023-04-21T02:48:11;94862.88;;;10.91;63.45
52957;BME280;38819;42.692;23.342;2023-04-21T02:50:36;94865.78;;;10.94;64.01
52957;BME280;38819;42.692;23.342;2023-04-21T02:53:02;94858.94;;;10.97;63.47
52957;BME280;38819;42.692;23.342;2023-04-21T02:55:27;94869.34;;;11.04;63.29
52957;BME280;38819;42.692;23.342;2023-04-21T02:57:53;94866.53;;;11.09;63.10
52957;BME280;38819;42.692;23.342;2023-04-21T03:00:18;94854.81;;;11.13;62.90
52957;BME280;38819;42.692;23.342;2023-04-21T03:02:44;94863.28;;;11.21;62.60
52957;BME280;38819;42.692;23.342;2023-04-21T03:05:10;94853.38;;;11.30;62.59
52957;BME280;38819;42.692;23.342;2023-04-21T03:07:37;94861.19;;;11.31;62.38
52957;BME280;38819;42.692;23.342;2023-04-21T03:10:02;94854.03;;;11.36;62.66
52957;BME280;38819;42.692;23.342;2023-04-21T03:12:28;94861.00;;;11.28;63.20
52957;BME280;38819;42.692;23.342;2023-04-21T03:14:53;94862.38;;;11.25;63.41
52957;BME280;38819;42.692;23.342;2023-04-21T03:17:18;94870.38;;;11.30;63.15
52957;BME280;38819;42.692;23.342;2023-04-21T03:19:44;94864.72;;;11.18;63.46
52957;BME280;38819;42.692;23.342;2023-04-21T03:22:10;94866.94;;;11.02;63.87
52957;BME280;38819;42.692;23.342;2023-04-21T03:24:35;94867.47;;;10.90;64.42
52957;BME280;38819;42.692;23.342;2023-04-21T03:27:01;94863.78;;;10.86;64.68
52957;BME280;38819;42.692;23.342;2023-04-21T03:29:27;94866.31;;;10.83;64.75
52957;BME280;38819;42.692;23.342;2023-04-21T03:31:52;94876.28;;;10.82;64.88
52957;BME280;38819;42.692;23.342;2023-04-21T03:34:17;94868.47;;;10.81;64.98
52957;BME280;38819;42.692;23.342;2023-04-21T03:36:43;94874.09;;;10.84;64.97
52957;BME280;38819;42.692;23.342;2023-04-21T03:39:08;94875.31;;;10.78;64.96
52957;BME280;38819;42.692;23.342;2023-04-21T03:41:33;94881.38;;;10.84;65.06
52957;BME280;38819;42.692;23.342;2023-04-21T03:43:59;94871.06;;;10.86;64.80
52957;BME280;38819;42.692;23.342;2023-04-21T03:46:24;94882.00;;;10.81;65.01
52957;BME280;38819;42.692;23.342;2023-04-21T03:48:50;94883.41;;;10.78;64.98
52957;BME280;38819;42.692;23.342;2023-04-21T03:51:16;94883.78;;;10.85;64.42
52957;BME280;38819;42.692;23.342;2023-04-21T03:53:41;94887.69;;;10.79;64.83
52957;BME280;38819;42.692;23.342;2023-04-21T03:56:07;94881.38;;;10.84;64.92
52957;BME280;38819;42.692;23.342;2023-04-21T03:58:33;94888.78;;;10.92;64.16
52957;BME280;38819;42.692;23.342;2023-04-21T04:00:59;94884.28;;;11.01;63.95
52957;BME280;38819;42.692;23.342;2023-04-21T04:03:24;94893.75;;;11.12;63.31
52957;BME280;38819;42.692;23.342;2023-04-21T04:05:50;94894.63;;;11.22;63.06
52957;BME280;38819;42.692;23.342;2023-04-21T04:08:16;94893.75;;;11.26;62.87
52957;BME280;38819;42.692;23.342;2023-04-21T04:10:41;94898.13;;;11.36;62.50
52957;BME280;38819;42.692;23.342;2023-04-21T04:13:07;94899.16;;;11.49;61.76
52957;BME280;38819;42.692;23.342;2023-04-21T04:15:32;94902.56;;;11.55;61.68
52957;BME280;38819;42.692;23.342;2023-04-21T04:17:58;94907.91;;;11.68;61.07
52957;BME280;38819;42.692;23.342;2023-04-21T04:20:23;94909.22;;;11.71;60.62
52957;BME280;38819;42.692;23.342;2023-04-21T04:22:48;94909.59;;;11.78;60.58
52957;BME280;38819;42.692;23.342;2023-04-21T04:25:14;94912.78;;;11.80;60.39
52957;BME280;38819;42.692;23.342;2023-04-21T04:27:41;94921.97;;;11.93;59.96
52957;BME280;38819;42.692;23.342;2023-04-21T04:30:08;94920.53;;;11.96;59.83
52957;BME280;38819;42.692;23.342;2023-04-21T04:32:34;94926.53;;;12.07;59.66
52957;BME280;38819;42.692;23.342;2023-04-21T04:35:02;94926.34;;;12.03;59.52
52957;BME280;38819;42.692;23.342;2023-04-21T04:37:28;94918.22;;;12.03;59.25
52957;BME280;38819;42.692;23.342;2023-04-21T04:39:53;94917.09;;;12.04;59.50
52957;BME280;38819;42.692;23.342;2023-04-21T04:42:19;94935.78;;;12.14;59.09
52957;BME280;38819;42.692;23.342;2023-04-21T04:44:45;94929.75;;;12.17;59.19
52957;BME280;38819;42.692;23.342;2023-04-21T04:47:11;94922.13;;;12.19;58.92
52957;BME280;38819;42.692;23.342;2023-04-21T04:49:37;94931.06;;;12.20;59.25
52957;BME280;38819;42.692;23.342;2023-04-21T04:52:02;94936.78;;;12.18;59.05
52957;BME280;38819;42.692;23.342;2023-04-21T04:54:27;94936.66;;;12.23;58.86
52957;BME280;38819;42.692;23.342;2023-04-21T04:56:53;94934.66;;;12.07;60.94
52957;BME280;38819;42.692;23.342;2023-04-21T04:59:19;94932.50;;;11.95;61.85
52957;BME280;38819;42.692;23.342;2023-04-21T05:01:45;94931.59;;;11.85;62.25
52957;BME280;38819;42.692;23.342;2023-04-21T05:04:10;94934.97;;;11.68;62.49
52957;BME280;38819;42.692;23.342;2023-04-21T05:06:40;94938.16;;;11.48;63.32
52957;BME280;38819;42.692;23.342;2023-04-21T05:09:05;94939.16;;;11.38;63.80
52957;BME280;38819;42.692;23.342;2023-04-21T05:11:31;94939.59;;;11.31;63.90
52957;BME280;38819;42.692;23.342;2023-04-21T05:13:56;94936.38;;;11.29;64.10
52957;BME280;38819;42.692;23.342;2023-04-21T05:16:21;94932.25;;;11.32;64.03
52957;BME280;38819;42.692;23.342;2023-04-21T05:18:47;94935.97;;;11.36;64.16
52957;BME280;38819;42.692;23.342;2023-04-21T05:21:24;94939.09;;;11.29;64.49
52957;BME280;38819;42.692;23.342;2023-04-21T05:23:57;94938.78;;;11.31;64.75
52957;BME280;38819;42.692;23.342;2023-04-21T05:26:24;94938.56;;;11.41;64.19
52957;BME280;38819;42.692;23.342;2023-04-21T05:28:50;94934.94;;;11.46;63.99
52957;BME280;38819;42.692;23.342;2023-04-21T05:31:15;94934.50;;;11.53;64.09
52957;BME280;38819;42.692;23.342;2023-04-21T05:33:41;94936.31;;;11.57;63.34
52957;BME280;38819;42.692;23.342;2023-04-21T05:36:07;94933.06;;;11.69;62.65
52957;BME280;38819;42.692;23.342;2023-04-21T05:38:36;94946.34;;;11.79;61.28
52957;BME280;38819;42.692;23.342;2023-04-21T05:41:02;94949.63;;;11.90;60.76
52957;BME280;38819;42.692;23.342;2023-04-21T05:43:28;94939.66;;;11.99;60.72
52957;BME280;38819;42.692;23.342;2023-04-21T05:45:54;94940.75;;;12.21;60.04
52957;BME280;38819;42.692;23.342;2023-04-21T05:48:19;94941.16;;;12.28;59.73
52957;BME280;38819;42.692;23.342;2023-04-21T05:50:45;94935.28;;;12.35;59.55
52957;BME280;38819;42.692;23.342;2023-04-21T05:53:10;94946.13;;;12.35;59.48
52957;BME280;38819;42.692;23.342;2023-04-21T05:55:36;94940.78;;;12.52;58.92
52957;BME280;38819;42.692;23.342;2023-04-21T05:58:01;94936.97;;;12.53;58.75
52957;BME280;38819;42.692;23.342;2023-04-21T06:00:28;94932.06;;;12.64;58.55
52957;BME280;38819;42.692;23.342;2023-04-21T06:02:53;94935.91;;;12.63;58.89
52957;BME280;38819;42.692;23.342;2023-04-21T06:05:19;94931.00;;;12.74;58.72
52957;BME280;38819;42.692;23.342;2023-04-21T06:07:45;94930.69;;;12.75;58.61
52957;BME280;38819;42.692;23.342;2023-04-21T06:10:12;94934.41;;;12.88;58.47
52957;BME280;38819;42.692;23.342;2023-04-21T06:12:37;94934.09;;;12.90;58.50
52957;BME280;38819;42.692;23.342;2023-04-21T06:15:03;94912.59;;;12.93;58.38
52957;BME280;38819;42.692;23.342;2023-04-21T06:17:29;94927.91;;;12.98;58.38
52957;BME280;38819;42.692;23.342;2023-04-21T06:19:54;94932.69;;;13.01;58.20
52957;BME280;38819;42.692;23.342;2023-04-21T06:22:23;94936.84;;;13.07;58.55
52957;BME280;38819;42.692;23.342;2023-04-21T06:24:49;94935.94;;;13.21;58.79
52957;BME280;38819;42.692;23.342;2023-04-21T06:27:14;94931.59;;;13.20;58.41
52957;BME280;38819;42.692;23.342;2023-04-21T06:29:41;94948.06;;;13.23;58.54
52957;BME280;38819;42.692;23.342;2023-04-21T06:32:09;94939.56;;;13.07;59.03
52957;BME280;38819;42.692;23.342;2023-04-21T06:34:35;94930.00;;;13.10;59.01
52957;BME280;38819;42.692;23.342;2023-04-21T06:37:01;94924.75;;;13.05;58.87
52957;BME280;38819;42.692;23.342;2023-04-21T06:39:27;94922.66;;;13.10;58.96
52957;BME280;38819;42.692;23.342;2023-04-21T06:41:52;94916.63;;;13.13;59.25
52957;BME280;38819;42.692;23.342;2023-04-21T06:44:18;94927.16;;;13.24;59.12
52957;BME280;38819;42.692;23.342;2023-04-21T06:46:43;94923.50;;;13.28;58.84
52957;BME280;38819;42.692;23.342;2023-04-21T06:49:09;94924.50;;;13.32;58.72
52957;BME280;38819;42.692;23.342;2023-04-21T06:51:34;94923.53;;;13.37;58.56
52957;BME280;38819;42.692;23.342;2023-04-21T06:54:01;94916.94;;;13.29;59.06
52957;BME280;38819;42.692;23.342;2023-04-21T06:56:27;94910.25;;;13.27;59.18
52957;BME280;38819;42.692;23.342;2023-04-21T06:58:52;94910.28;;;13.36;59.25
52957;BME280;38819;42.692;23.342;2023-04-21T07:01:18;94906.16;;;13.47;58.95
52957;BME280;38819;42.692;23.342;2023-04-21T07:03:43;94913.69;;;13.50;59.00
52957;BME280;38819;42.692;23.342;2023-04-21T07:06:09;94912.88;;;13.58;58.47
52957;BME280;38819;42.692;23.342;2023-04-21T07:08:35;94902.34;;;13.57;58.47
52957;BME280;38819;42.692;23.342;2023-04-21T07:11:00;94906.81;;;13.52;58.65
52957;BME280;38819;42.692;23.342;2023-04-21T07:13:26;94908.09;;;13.55;58.93
52957;BME280;38819;42.692;23.342;2023-04-21T07:15:51;94916.06;;;13.69;58.40
52957;BME280;38819;42.692;23.342;2023-04-21T07:18:17;94913.84;;;13.62;58.41
52957;BME280;38819;42.692;23.342;2023-04-21T07:20:43;94908.88;;;13.73;57.82
52957;BME280;38819;42.692;23.342;2023-04-21T07:23:08;94909.84;;;13.68;57.85
52957;BME280;38819;42.692;23.342;2023-04-21T07:25:33;94919.25;;;13.71;57.75
52957;BME280;38819;42.692;23.342;2023-04-21T07:27:59;94917.97;;;13.77;57.14
52957;BME280;38819;42.692;23.342;2023-04-21T07:30:24;94910.31;;;13.70;57.31
52957;BME280;38819;42.692;23.342;2023-04-21T07:32:50;94907.09;;;13.60;58.01
52957;BME280;38819;42.692;23.342;2023-04-21T07:35:15;94909.34;;;13.58;58.59
52957;BME280;38819;42.692;23.342;2023-04-21T07:37:41;94908.56;;;13.57;58.81
52957;BME280;38819;42.692;23.342;2023-04-21T07:40:07;94908.41;;;13.62;58.80
52957;BME280;38819;42.692;23.342;2023-04-21T07:42:33;94907.78;;;13.65;58.24
52957;BME280;38819;42.692;23.342;2023-04-21T07:44:58;94902.03;;;13.58;57.90
52957;BME280;38819;42.692;23.342;2023-04-21T07:47:25;94908.72;;;13.69;57.83
52957;BME280;38819;42.692;23.342;2023-04-21T07:49:51;94909.53;;;13.79;57.00
52957;BME280;38819;42.692;23.342;2023-04-21T07:52:17;94908.72;;;13.78;57.34
52957;BME280;38819;42.692;23.342;2023-04-21T07:54:42;94913.84;;;13.88;57.22
52957;BME280;38819;42.692;23.342;2023-04-21T07:57:08;94914.94;;;14.05;56.86
52957;BME280;38819;42.692;23.342;2023-04-21T07:59:34;94904.66;;;14.19;56.77
52957;BME280;38819;42.692;23.342;2023-04-21T08:02:00;94908.66;;;14.31;56.19
52957;BME280;38819;42.692;23.342;2023-04-21T08:04:26;94906.03;;;14.43;55.79
52957;BME280;38819;42.692;23.342;2023-04-21T08:06:51;94912.97;;;14.32;55.86
52957;BME280;38819;42.692;23.342;2023-04-21T08:09:17;94919.47;;;14.39;55.62
52957;BME280;38819;42.692;23.342;2023-04-21T08:11:42;94912.63;;;14.42;55.48
52957;BME280;38819;42.692;23.342;2023-04-21T08:14:07;94911.16;;;14.44;55.87
52957;BME280;38819;42.692;23.342;2023-04-21T08:16:36;94902.97;;;14.53;55.89
52957;BME280;38819;42.692;23.342;2023-04-21T08:19:01;94905.03;;;14.56;55.32
52957;BME280;38819;42.692;23.342;2023-04-21T08:21:27;94897.69;;;14.57;55.67
52957;BME280;38819;42.692;23.342;2023-04-21T08:23:53;94906.97;;;14.56;55.23
52957;BME280;38819;42.692;23.342;2023-04-21T08:26:21;94903.59;;;14.68;54.89
52957;BME280;38819;42.692;23.342;2023-04-21T08:28:46;94898.75;;;14.73;54.48
52957;BME280;38819;42.692;23.342;2023-04-21T08:31:13;94911.06;;;14.79;53.99
52957;BME280;38819;42.692;23.342;2023-04-21T08:33:39;94894.59;;;14.76;53.83
52957;BME280;38819;42.692;23.342;2023-04-21T08:36:05;94902.91;;;14.79;53.54
52957;BME280;38819;42.692;23.342;2023-04-21T08:38:30;94906.06;;;14.90;53.90
52957;BME280;38819;42.692;23.342;2023-04-21T08:40:58;94897.53;;;15.00;52.87
52957;BME280;38819;42.692;23.342;2023-04-21T08:43:24;94904.56;;;15.01;52.92
52957;BME280;38819;42.692;23.342;2023-04-21T08:45:50;94884.91;;;14.96;53.07
52957;BME280;38819;42.692;23.342;2023-04-21T08:48:16;94886.78;;;15.04;53.27
52957;BME280;38819;42.692;23.342;2023-04-21T08:50:45;94883.75;;;15.06;53.22
52957;BME280;38819;42.692;23.342;2023-04-21T08:53:12;94886.13;;;15.07;53.22
52957;BME280;38819;42.692;23.342;2023-04-21T08:55:39;94884.81;;;15.13;53.04
52957;BME280;38819;42.692;23.342;2023-04-21T08:58:06;94896.25;;;15.28;52.88
52957;BME280;38819;42.692;23.342;2023-04-21T09:00:36;94878.47;;;15.30;52.88
52957;BME280;38819;42.692;23.342;2023-04-21T09:03:01;94865.47;;;15.36;52.53
52957;BME280;38819;42.692;23.342;2023-04-21T09:05:30;94874.69;;;15.44;52.13
52957;BME280;38819;42.692;23.342;2023-04-21T09:08:12;94883.44;;;15.49;51.48
52957;BME280;38819;42.692;23.342;2023-04-21T09:10:48;94873.34;;;15.50;51.97
52957;BME280;38819;42.692;23.342;2023-04-21T09:13:15;94868.19;;;15.57;50.85
52957;BME280;38819;42.692;23.342;2023-04-21T09:15:46;94862.75;;;15.57;50.33
52957;BME280;38819;42.692;23.342;2023-04-21T09:18:20;94861.81;;;15.53;50.86
52957;BME280;38819;42.692;23.342;2023-04-21T09:20:49;94866.13;;;15.54;51.13
52957;BME280;38819;42.692;23.342;2023-04-21T09:23:16;94864.41;;;15.49;50.78
52957;BME280;38819;42.692;23.342;2023-04-21T09:25:43;94866.88;;;15.42;50.63
52957;BME280;38819;42.692;23.342;2023-04-21T09:28:13;94866.75;;;15.38;50.88
52957;BME280;38819;42.692;23.342;2023-04-21T09:30:41;94848.59;;;15.43;49.46
52957;BME280;38819;42.692;23.342;2023-04-21T09:33:07;94856.91;;;15.46;49.18
52957;BME280;38819;42.692;23.342;2023-04-21T09:35:38;94850.59;;;15.54;49.12
52957;BME280;38819;42.692;23.342;2023-04-21T09:38:09;94855.50;;;15.61;49.17
52957;BME280;38819;42.692;23.342;2023-04-21T09:40:35;94890.47;;;15.71;47.50
52957;BME280;38819;42.692;23.342;2023-04-21T09:43:01;94848.06;;;15.70;48.11
52957;BME280;38819;42.692;23.342;2023-04-21T09:45:27;94835.06;;;15.76;48.13
52957;BME280;38819;42.692;23.342;2023-04-21T09:47:58;94838.97;;;15.87;47.54
52957;BME280;38819;42.692;23.342;2023-04-21T09:50:28;94838.47;;;15.85;48.54
52957;BME280;38819;42.692;23.342;2023-04-21T09:52:55;94836.47;;;15.95;47.21
52957;BME280;38819;42.692;23.342;2023-04-21T09:55:27;94839.66;;;15.97;47.73
52957;BME280;38819;42.692;23.342;2023-04-21T09:58:01;94839.78;;;16.00;48.11
52957;BME280;38819;42.692;23.342;2023-04-21T10:00:27;94849.56;;;16.01;48.23
52957;BME280;38819;42.692;23.342;2023-04-21T10:02:54;94830.50;;;16.01;48.61
52957;BME280;38819;42.692;23.342;2023-04-21T10:05:21;94843.09;;;16.06;47.01
52957;BME280;38819;42.692;23.342;2023-04-21T10:07:47;94836.16;;;15.96;46.37
52957;BME280;38819;42.692;23.342;2023-04-21T10:10:23;94827.22;;;16.08;46.55
52957;BME280;38819;42.692;23.342;2023-04-21T10:12:50;94829.25;;;16.11;47.25
52957;BME280;38819;42.692;23.342;2023-04-21T10:15:33;94839.31;;;15.98;48.94
52957;BME280;38819;42.692;23.342;2023-04-21T10:18:12;94833.72;;;15.82;49.76
52957;BME280;38819;42.692;23.342;2023-04-21T10:21:01;94858.13;;;15.70;50.21
52957;BME280;38819;42.692;23.342;2023-04-21T10:26:24;94842.09;;;15.56;50.49
52957;BME280;38819;42.692;23.342;2023-04-21T10:28:55;94835.19;;;15.59;50.53
52957;BME280;38819;42.692;23.342;2023-04-21T10:39:42;94822.41;;;15.71;51.21
52957;BME280;38819;42.692;23.342;2023-04-21T10:42:27;94820.91;;;15.83;50.72
52957;BME280;38819;42.692;23.342;2023-04-21T10:49:57;94835.50;;;16.11;47.56
52957;BME280;38819;42.692;23.342;2023-04-21T10:52:33;94832.78;;;16.11;47.26
52957;BME280;38819;42.692;23.342;2023-04-21T10:57:24;94819.53;;;16.22;46.47
52957;BME280;38819;42.692;23.342;2023-04-21T10:59:49;94818.97;;;16.41;44.24
52957;BME280;38819;42.692;23.342;2023-04-21T11:02:17;94817.97;;;16.58;43.45
52957;BME280;38819;42.692;23.342;2023-04-21T11:04:42;94822.28;;;16.72;43.85
52957;BME280;38819;42.692;23.342;2023-04-21T11:07:18;94825.34;;;16.70;44.07
52957;BME280;38819;42.692;23.342;2023-04-21T11:09:45;94824.44;;;16.78;45.06
52957;BME280;38819;42.692;23.342;2023-04-21T11:12:15;94837.53;;;16.73;47.84
52957;BME280;38819;42.692;23.342;2023-04-21T11:14:43;94820.81;;;16.74;49.07
52957;BME280;38819;42.692;23.342;2023-04-21T11:17:11;94815.03;;;16.51;50.79
52957;BME280;38819;42.692;23.342;2023-04-21T11:19:36;94816.97;;;16.51;51.18
52957;BME280;38819;42.692;23.342;2023-04-21T11:22:03;94829.16;;;16.20;51.27
52957;BME280;38819;42.692;23.342;2023-04-21T11:24:29;94799.19;;;16.07;51.83
52957;BME280;38819;42.692;23.342;2023-04-21T11:26:54;94807.69;;;16.06;51.63
52957;BME280;38819;42.692;23.342;2023-04-21T11:29:21;94805.75;;;16.19;50.90
52957;BME280;38819;42.692;23.342;2023-04-21T11:31:47;94802.47;;;16.25;50.37
52957;BME280;38819;42.692;23.342;2023-04-21T11:34:14;94833.56;;;16.12;51.33
52957;BME280;38819;42.692;23.342;2023-04-21T11:36:44;94820.38;;;16.02;51.83
52957;BME280;38819;42.692;23.342;2023-04-21T11:39:12;94823.53;;;15.91;51.92
52957;BME280;38819;42.692;23.342;2023-04-21T11:41:39;94830.25;;;15.94;52.22
52957;BME280;38819;42.692;23.342;2023-04-21T11:44:06;94821.97;;;16.03;52.45
52957;BME280;38819;42.692;23.342;2023-04-21T11:46:32;94831.81;;;15.95;51.11
52957;BME280;38819;42.692;23.342;2023-04-21T11:51:23;94822.53;;;15.96;49.67
52957;BME280;38819;42.692;23.342;2023-04-21T11:53:49;94820.31;;;16.10;48.20
52957;BME280;38819;42.692;23.342;2023-04-21T11:56:21;94814.19;;;16.26;46.53
52957;BME280;38819;42.692;23.342;2023-04-21T11:58:48;94806.03;;;16.26;45.12
52957;BME280;38819;42.692;23.342;2023-04-21T12:01:15;94823.16;;;16.39;44.04
52957;BME280;38819;42.692;23.342;2023-04-21T12:03:41;94821.72;;;16.41;44.77
52957;BME280;38819;42.692;23.342;2023-04-21T12:06:06;94798.88;;;16.46;45.72
52957;BME280;38819;42.692;23.342;2023-04-21T12:08:32;94843.41;;;16.50;46.12
52957;BME280;38819;42.692;23.342;2023-04-21T12:10:58;94816.81;;;16.47;45.99
52957;BME280;38819;42.692;23.342;2023-04-21T12:13:26;94817.06;;;16.54;45.73
52957;BME280;38819;42.692;23.342;2023-04-21T12:15:52;94839.09;;;16.49;44.63
52957;BME280;38819;42.692;23.342;2023-04-21T12:18:18;94829.41;;;16.27;44.72
52957;BME280;38819;42.692;23.342;2023-04-21T12:20:51;94835.97;;;16.14;45.05
52957;BME280;38819;42.692;23.342;2023-04-21T12:23:17;94820.38;;;16.02;45.91
52957;BME280;38819;42.692;23.342;2023-04-21T12:25:44;94823.09;;;16.02;46.22
52957;BME280;38819;42.692;23.342;2023-04-21T12:28:12;94825.47;;;15.91;46.97
52957;BME280;38819;42.692;23.342;2023-04-21T12:30:39;94825.72;;;15.98;46.24
52957;BME280;38819;42.692;23.342;2023-04-21T12:33:05;94819.25;;;16.03;46.74
52957;BME280;38819;42.692;23.342;2023-04-21T12:35:30;94833.22;;;16.14;46.48
52957;BME280;38819;42.692;23.342;2023-04-21T12:37:57;94826.09;;;16.21;46.37
52957;BME280;38819;42.692;23.342;2023-04-21T12:40:23;94823.38;;;16.21;46.26
52957;BME280;38819;42.692;23.342;2023-04-21T12:42:48;94805.91;;;16.22;46.15
52957;BME280;38819;42.692;23.342;2023-04-21T12:45:13;94815.56;;;16.32;46.10
52957;BME280;38819;42.692;23.342;2023-04-21T12:47:39;94836.69;;;16.35;45.07
52957;BME280;38819;42.692;23.342;2023-04-21T12:50:06;94817.16;;;16.33;46.49
52957;BME280;38819;42.692;23.342;2023-04-21T12:52:32;94814.53;;;16.24;47.56
52957;BME280;38819;42.692;23.342;2023-04-21T12:54:57;94816.47;;;16.24;47.79
52957;BME280;38819;42.692;23.342;2023-04-21T12:57:23;94802.41;;;16.34;47.98
52957;BME280;38819;42.692;23.342;2023-04-21T12:59:48;94810.69;;;16.38;47.00
52957;BME280;38819;42.692;23.342;2023-04-21T13:02:14;94815.13;;;16.55;45.65
52957;BME280;38819;42.692;23.342;2023-04-21T13:04:39;94802.50;;;16.38;45.97
52957;BME280;38819;42.692;23.342;2023-04-21T13:07:06;94796.72;;;16.52;45.72